sensor_id;sensor_type;location;lat;lon;timestamp;P1;durP1;ratioP1;P2;durP2;ratioP2
48526;SDS011;34317;51.660;5.824;2024-01-16T00:01:06;4.15;;;2.35;;
48526;SDS011;34317;51.660;5.824;2024-01-16T00:03:33;6.00;;;2.30;;
48526;SDS011;34317;51.660;5.824;2024-01-16T00:06:01;5.03;;;2.55;;
48526;SDS011;34317;51.660;5.824;2024-01-16T00:08:34;3.58;;;1.90;;
48526;SDS011;34317;51.660;5.824;2024-01-16T00:11:08;6.18;;;2.22;;
48526;SDS011;34317;51.660;5.824;2024-01-16T00:13:45;6.35;;;2.72;;
48526;SDS011;34317;51.660;5.824;2024-01-16T00:16:12;3.95;;;2.17;;
48526;SDS011;34317;51.660;5.824;2024-01-16T00:18:39;7.20;;;1.90;;
48526;SDS011;34317;51.660;5.824;2024-01-16T00:21:07;4.38;;;1.63;;
48526;SDS011;34317;51.660;5.824;2024-01-16T00:23:35;2.42;;;1.48;;
48526;SDS011;34317;51.660;5.824;2024-01-16T00:26:02;5.78;;;1.60;;
48526;SDS011;34317;51.660;5.824;2024-01-16T00:28:31;4.60;;;2.10;;
48526;SDS011;34317;51.660;5.824;2024-01-16T00:30:59;5.22;;;1.85;;
48526;SDS011;34317;51.660;5.824;2024-01-16T00:33:27;4.53;;;1.90;;
48526;SDS011;34317;51.660;5.824;2024-01-16T00:35:55;5.05;;;1.88;;
48526;SDS011;34317;51.660;5.824;2024-01-16T00:38:22;6.25;;;2.22;;
48526;SDS011;34317;51.660;5.824;2024-01-16T00:40:49;2.90;;;1.85;;
48526;SDS011;34317;51.660;5.824;2024-01-16T00:43:18;3.53;;;2.20;;
48526;SDS011;34317;51.660;5.824;2024-01-16T00:45:45;3.60;;;2.00;;
48526;SDS011;34317;51.660;5.824;2024-01-16T00:48:13;4.32;;;2.00;;
48526;SDS011;34317;51.660;5.824;2024-01-16T00:50:41;3.83;;;2.05;;
48526;SDS011;34317;51.660;5.824;2024-01-16T00:53:08;5.57;;;2.00;;
48526;SDS011;34317;51.660;5.824;2024-01-16T00:55:35;6.03;;;2.10;;
48526;SDS011;34317;51.660;5.824;2024-01-16T00:58:04;3.95;;;2.00;;
48526;SDS011;34317;51.660;5.824;2024-01-16T01:00:31;3.10;;;1.63;;
48526;SDS011;34317;51.660;5.824;2024-01-16T01:03:01;6.05;;;1.70;;
48526;SDS011;34317;51.660;5.824;2024-01-16T01:05:30;3.17;;;1.77;;
48526;SDS011;34317;51.660;5.824;2024-01-16T01:07:58;2.80;;;1.65;;
48526;SDS011;34317;51.660;5.824;2024-01-16T01:10:25;2.42;;;1.35;;
48526;SDS011;34317;51.660;5.824;2024-01-16T01:12:52;3.08;;;1.42;;
48526;SDS011;34317;51.660;5.824;2024-01-16T01:15:20;2.83;;;1.65;;
48526;SDS011;34317;51.660;5.824;2024-01-16T01:17:48;3.83;;;1.50;;
48526;SDS011;34317;51.660;5.824;2024-01-16T01:20:17;3.85;;;1.65;;
48526;SDS011;34317;51.660;5.824;2024-01-16T01:22:45;2.90;;;1.48;;
48526;SDS011;34317;51.660;5.824;2024-01-16T01:25:14;3.45;;;1.50;;
48526;SDS011;34317;51.660;5.824;2024-01-16T01:27:41;5.28;;;1.90;;
48526;SDS011;34317;51.660;5.824;2024-01-16T01:30:08;3.42;;;1.98;;
48526;SDS011;34317;51.660;5.824;2024-01-16T01:32:37;4.38;;;1.70;;
48526;SDS011;34317;51.660;5.824;2024-01-16T01:35:05;2.30;;;1.50;;
48526;SDS011;34317;51.660;5.824;2024-01-16T01:37:33;4.93;;;1.73;;
48526;SDS011;34317;51.660;5.824;2024-01-16T01:40:01;4.20;;;1.52;;
48526;SDS011;34317;51.660;5.824;2024-01-16T01:42:28;3.53;;;1.30;;
48526;SDS011;34317;51.660;5.824;2024-01-16T01:45:27;2.95;;;1.42;;
48526;SDS011;34317;51.660;5.824;2024-01-16T01:47:55;3.72;;;1.45;;
48526;SDS011;34317;51.660;5.824;2024-01-16T01:50:23;2.80;;;1.55;;
48526;SDS011;34317;51.660;5.824;2024-01-16T01:52:52;3.53;;;1.50;;
48526;SDS011;34317;51.660;5.824;2024-01-16T01:55:19;1.90;;;1.30;;
48526;SDS011;34317;51.660;5.824;2024-01-16T02:01:53;3.63;;;1.70;;
48526;SDS011;34317;51.660;5.824;2024-01-16T02:04:23;3.15;;;1.58;;
48526;SDS011;34317;51.660;5.824;2024-01-16T02:06:52;3.58;;;1.58;;
48526;SDS011;34317;51.660;5.824;2024-01-16T02:09:20;5.85;;;1.85;;
48526;SDS011;34317;51.660;5.824;2024-01-16T02:11:47;6.93;;;2.08;;
48526;SDS011;34317;51.660;5.824;2024-01-16T02:14:14;4.40;;;1.77;;
48526;SDS011;34317;51.660;5.824;2024-01-16T02:16:42;7.40;;;1.80;;
48526;SDS011;34317;51.660;5.824;2024-01-16T02:19:11;3.47;;;1.85;;
48526;SDS011;34317;51.660;5.824;2024-01-16T02:21:48;4.30;;;1.95;;
48526;SDS011;34317;51.660;5.824;2024-01-16T02:24:17;6.30;;;1.75;;
48526;SDS011;34317;51.660;5.824;2024-01-16T02:26:46;6.93;;;2.13;;
48526;SDS011;34317;51.660;5.824;2024-01-16T02:29:14;9.00;;;2.05;;
48526;SDS011;34317;51.660;5.824;2024-01-16T02:31:43;5.90;;;2.33;;
48526;SDS011;34317;51.660;5.824;2024-01-16T02:34:10;3.88;;;1.98;;
48526;SDS011;34317;51.660;5.824;2024-01-16T02:36:38;4.07;;;1.90;;
48526;SDS011;34317;51.660;5.824;2024-01-16T02:39:05;9.40;;;2.50;;
48526;SDS011;34317;51.660;5.824;2024-01-16T02:41:33;6.35;;;1.70;;
48526;SDS011;34317;51.660;5.824;2024-01-16T02:44:01;5.18;;;2.25;;
48526;SDS011;34317;51.660;5.824;2024-01-16T02:46:28;4.80;;;2.42;;
48526;SDS011;34317;51.660;5.824;2024-01-16T02:48:55;2.80;;;1.98;;
48526;SDS011;34317;51.660;5.824;2024-01-16T02:51:23;4.78;;;2.40;;
48526;SDS011;34317;51.660;5.824;2024-01-16T02:53:50;5.05;;;1.67;;
48526;SDS011;34317;51.660;5.824;2024-01-16T02:56:18;3.63;;;2.17;;
48526;SDS011;34317;51.660;5.824;2024-01-16T02:58:45;4.78;;;1.80;;
48526;SDS011;34317;51.660;5.824;2024-01-16T03:01:13;4.07;;;1.75;;
48526;SDS011;34317;51.660;5.824;2024-01-16T03:03:41;8.57;;;1.88;;
48526;SDS011;34317;51.660;5.824;2024-01-16T03:06:09;2.88;;;1.50;;
48526;SDS011;34317;51.660;5.824;2024-01-16T03:08:36;3.63;;;1.23;;
48526;SDS011;34317;51.660;5.824;2024-01-16T03:11:03;3.00;;;1.42;;
48526;SDS011;34317;51.660;5.824;2024-01-16T03:13:31;3.72;;;1.48;;
48526;SDS011;34317;51.660;5.824;2024-01-16T03:16:06;2.83;;;1.40;;
48526;SDS011;34317;51.660;5.824;2024-01-16T03:21:01;3.80;;;1.20;;
48526;SDS011;34317;51.660;5.824;2024-01-16T03:23:28;4.00;;;1.30;;
48526;SDS011;34317;51.660;5.824;2024-01-16T03:25:57;3.78;;;0.95;;
48526;SDS011;34317;51.660;5.824;2024-01-16T03:28:25;2.78;;;1.30;;
48526;SDS011;34317;51.660;5.824;2024-01-16T03:30:52;3.88;;;1.05;;
48526;SDS011;34317;51.660;5.824;2024-01-16T03:33:21;3.08;;;1.00;;
48526;SDS011;34317;51.660;5.824;2024-01-16T03:35:50;2.65;;;0.80;;
48526;SDS011;34317;51.660;5.824;2024-01-16T03:38:18;1.80;;;1.00;;
48526;SDS011;34317;51.660;5.824;2024-01-16T03:40:46;2.80;;;1.48;;
48526;SDS011;34317;51.660;5.824;2024-01-16T03:43:13;4.75;;;1.70;;
48526;SDS011;34317;51.660;5.824;2024-01-16T03:45:41;3.58;;;1.60;;
48526;SDS011;34317;51.660;5.824;2024-01-16T03:48:08;3.92;;;1.83;;
48526;SDS011;34317;51.660;5.824;2024-01-16T03:50:36;4.53;;;1.63;;
48526;SDS011;34317;51.660;5.824;2024-01-16T03:53:03;4.82;;;1.60;;
48526;SDS011;34317;51.660;5.824;2024-01-16T03:55:33;4.25;;;2.03;;
48526;SDS011;34317;51.660;5.824;2024-01-16T03:58:00;6.47;;;1.70;;
48526;SDS011;34317;51.660;5.824;2024-01-16T04:00:28;6.13;;;1.73;;
48526;SDS011;34317;51.660;5.824;2024-01-16T04:02:55;4.32;;;1.40;;
48526;SDS011;34317;51.660;5.824;2024-01-16T04:05:23;2.22;;;1.30;;
48526;SDS011;34317;51.660;5.824;2024-01-16T04:07:51;4.05;;;1.30;;
48526;SDS011;34317;51.660;5.824;2024-01-16T04:10:20;1.60;;;1.00;;
48526;SDS011;34317;51.660;5.824;2024-01-16T04:12:47;2.90;;;0.80;;
48526;SDS011;34317;51.660;5.824;2024-01-16T04:15:14;3.80;;;1.15;;
48526;SDS011;34317;51.660;5.824;2024-01-16T04:17:43;2.42;;;0.98;;
48526;SDS011;34317;51.660;5.824;2024-01-16T04:20:10;2.25;;;0.90;;
48526;SDS011;34317;51.660;5.824;2024-01-16T04:22:38;3.15;;;1.08;;
48526;SDS011;34317;51.660;5.824;2024-01-16T04:25:05;2.45;;;0.80;;
48526;SDS011;34317;51.660;5.824;2024-01-16T04:27:33;4.55;;;0.85;;
48526;SDS011;34317;51.660;5.824;2024-01-16T04:30:00;2.45;;;0.90;;
48526;SDS011;34317;51.660;5.824;2024-01-16T04:32:28;1.27;;;0.85;;
48526;SDS011;34317;51.660;5.824;2024-01-16T04:34:55;3.63;;;0.93;;
48526;SDS011;34317;51.660;5.824;2024-01-16T04:37:23;1.88;;;0.80;;
48526;SDS011;34317;51.660;5.824;2024-01-16T04:39:50;2.28;;;0.95;;
48526;SDS011;34317;51.660;5.824;2024-01-16T04:42:19;3.70;;;1.10;;
48526;SDS011;34317;51.660;5.824;2024-01-16T04:44:46;5.03;;;1.30;;
48526;SDS011;34317;51.660;5.824;2024-01-16T04:47:16;3.80;;;1.30;;
48526;SDS011;34317;51.660;5.824;2024-01-16T04:49:43;5.60;;;1.52;;
48526;SDS011;34317;51.660;5.824;2024-01-16T04:52:11;4.72;;;1.48;;
48526;SDS011;34317;51.660;5.824;2024-01-16T04:54:38;4.43;;;1.77;;
48526;SDS011;34317;51.660;5.824;2024-01-16T04:57:05;6.40;;;1.80;;
48526;SDS011;34317;51.660;5.824;2024-01-16T04:59:33;5.70;;;2.17;;
48526;SDS011;34317;51.660;5.824;2024-01-16T05:02:00;9.98;;;2.58;;
48526;SDS011;34317;51.660;5.824;2024-01-16T05:04:28;5.82;;;2.20;;
48526;SDS011;34317;51.660;5.824;2024-01-16T05:06:55;6.55;;;2.25;;
48526;SDS011;34317;51.660;5.824;2024-01-16T05:09:22;5.97;;;2.20;;
48526;SDS011;34317;51.660;5.824;2024-01-16T05:11:49;5.05;;;2.60;;
48526;SDS011;34317;51.660;5.824;2024-01-16T05:14:17;6.72;;;2.65;;
48526;SDS011;34317;51.660;5.824;2024-01-16T05:16:44;6.28;;;3.00;;
48526;SDS011;34317;51.660;5.824;2024-01-16T05:19:12;6.75;;;3.10;;
48526;SDS011;34317;51.660;5.824;2024-01-16T05:21:40;10.15;;;3.83;;
48526;SDS011;34317;51.660;5.824;2024-01-16T05:24:08;7.75;;;3.20;;
48526;SDS011;34317;51.660;5.824;2024-01-16T05:26:35;6.85;;;2.97;;
48526;SDS011;34317;51.660;5.824;2024-01-16T05:29:02;11.13;;;3.60;;
48526;SDS011;34317;51.660;5.824;2024-01-16T05:31:30;11.82;;;3.55;;
48526;SDS011;34317;51.660;5.824;2024-01-16T05:33:57;7.75;;;3.63;;
48526;SDS011;34317;51.660;5.824;2024-01-16T05:36:26;8.55;;;3.90;;
48526;SDS011;34317;51.660;5.824;2024-01-16T05:38:54;9.43;;;3.75;;
48526;SDS011;34317;51.660;5.824;2024-01-16T05:41:21;8.63;;;3.75;;
48526;SDS011;34317;51.660;5.824;2024-01-16T05:43:51;9.48;;;3.65;;
48526;SDS011;34317;51.660;5.824;2024-01-16T05:46:20;10.32;;;4.05;;
48526;SDS011;34317;51.660;5.824;2024-01-16T05:48:49;10.98;;;4.00;;
48526;SDS011;34317;51.660;5.824;2024-01-16T05:51:18;10.38;;;4.60;;
48526;SDS011;34317;51.660;5.824;2024-01-16T05:53:47;10.15;;;4.28;;
48526;SDS011;34317;51.660;5.824;2024-01-16T05:56:15;9.60;;;4.63;;
48526;SDS011;34317;51.660;5.824;2024-01-16T05:58:44;9.45;;;4.20;;
48526;SDS011;34317;51.660;5.824;2024-01-16T06:01:11;10.77;;;3.75;;
48526;SDS011;34317;51.660;5.824;2024-01-16T06:03:41;9.25;;;4.53;;
48526;SDS011;34317;51.660;5.824;2024-01-16T06:06:10;8.52;;;3.90;;
48526;SDS011;34317;51.660;5.824;2024-01-16T06:08:39;8.65;;;3.75;;
48526;SDS011;34317;51.660;5.824;2024-01-16T06:11:07;9.00;;;4.07;;
48526;SDS011;34317;51.660;5.824;2024-01-16T06:13:35;9.48;;;3.88;;
48526;SDS011;34317;51.660;5.824;2024-01-16T06:16:02;7.85;;;3.85;;
48526;SDS011;34317;51.660;5.824;2024-01-16T06:18:30;10.82;;;4.00;;
48526;SDS011;34317;51.660;5.824;2024-01-16T06:20:57;11.25;;;4.30;;
48526;SDS011;34317;51.660;5.824;2024-01-16T06:23:26;10.55;;;4.07;;
48526;SDS011;34317;51.660;5.824;2024-01-16T06:25:53;9.00;;;3.92;;
48526;SDS011;34317;51.660;5.824;2024-01-16T06:28:21;11.10;;;4.35;;
48526;SDS011;34317;51.660;5.824;2024-01-16T06:30:49;7.80;;;4.13;;
48526;SDS011;34317;51.660;5.824;2024-01-16T06:33:16;9.50;;;4.25;;
48526;SDS011;34317;51.660;5.824;2024-01-16T06:35:44;11.52;;;4.30;;
48526;SDS011;34317;51.660;5.824;2024-01-16T06:38:11;10.45;;;3.85;;
48526;SDS011;34317;51.660;5.824;2024-01-16T06:40:38;11.75;;;4.45;;
48526;SDS011;34317;51.660;5.824;2024-01-16T06:43:06;7.15;;;3.90;;
48526;SDS011;34317;51.660;5.824;2024-01-16T06:45:34;10.18;;;4.38;;
48526;SDS011;34317;51.660;5.824;2024-01-16T06:48:02;10.45;;;3.42;;
48526;SDS011;34317;51.660;5.824;2024-01-16T06:50:30;8.18;;;4.18;;
48526;SDS011;34317;51.660;5.824;2024-01-16T06:52:58;7.60;;;3.35;;
48526;SDS011;34317;51.660;5.824;2024-01-16T06:55:26;14.05;;;3.83;;
48526;SDS011;34317;51.660;5.824;2024-01-16T06:57:55;8.55;;;3.58;;
48526;SDS011;34317;51.660;5.824;2024-01-16T07:00:23;5.78;;;3.17;;
48526;SDS011;34317;51.660;5.824;2024-01-16T07:02:53;9.23;;;3.72;;
48526;SDS011;34317;51.660;5.824;2024-01-16T07:05:21;8.07;;;3.13;;
48526;SDS011;34317;51.660;5.824;2024-01-16T07:07:49;9.75;;;3.58;;
48526;SDS011;34317;51.660;5.824;2024-01-16T07:10:16;8.15;;;3.42;;
48526;SDS011;34317;51.660;5.824;2024-01-16T07:12:49;9.05;;;3.20;;
48526;SDS011;34317;51.660;5.824;2024-01-16T07:15:19;6.35;;;3.17;;
48526;SDS011;34317;51.660;5.824;2024-01-16T07:18:03;7.47;;;2.93;;
48526;SDS011;34317;51.660;5.824;2024-01-16T07:20:31;7.68;;;2.85;;
48526;SDS011;34317;51.660;5.824;2024-01-16T07:22:59;5.60;;;2.60;;
48526;SDS011;34317;51.660;5.824;2024-01-16T07:25:26;5.95;;;3.00;;
48526;SDS011;34317;51.660;5.824;2024-01-16T07:27:54;7.63;;;2.67;;
48526;SDS011;34317;51.660;5.824;2024-01-16T07:30:21;6.38;;;2.63;;
48526;SDS011;34317;51.660;5.824;2024-01-16T07:32:48;8.05;;;2.60;;
48526;SDS011;34317;51.660;5.824;2024-01-16T07:35:17;4.55;;;2.17;;
48526;SDS011;34317;51.660;5.824;2024-01-16T07:37:45;9.23;;;2.78;;
48526;SDS011;34317;51.660;5.824;2024-01-16T07:40:12;8.35;;;2.67;;
48526;SDS011;34317;51.660;5.824;2024-01-16T07:42:39;7.93;;;2.55;;
48526;SDS011;34317;51.660;5.824;2024-01-16T07:45:06;4.28;;;2.42;;
48526;SDS011;34317;51.660;5.824;2024-01-16T07:47:34;7.93;;;2.35;;
48526;SDS011;34317;51.660;5.824;2024-01-16T07:50:03;5.60;;;2.45;;
48526;SDS011;34317;51.660;5.824;2024-01-16T07:52:34;5.60;;;2.33;;
48526;SDS011;34317;51.660;5.824;2024-01-16T07:55:02;10.05;;;2.70;;
48526;SDS011;34317;51.660;5.824;2024-01-16T07:57:30;7.72;;;2.50;;
48526;SDS011;34317;51.660;5.824;2024-01-16T08:03:16;6.40;;;2.28;;
48526;SDS011;34317;51.660;5.824;2024-01-16T08:05:43;7.30;;;2.08;;
48526;SDS011;34317;51.660;5.824;2024-01-16T08:08:12;6.90;;;2.20;;
48526;SDS011;34317;51.660;5.824;2024-01-16T08:10:42;7.07;;;1.90;;
48526;SDS011;34317;51.660;5.824;2024-01-16T08:13:10;7.28;;;2.20;;
48526;SDS011;34317;51.660;5.824;2024-01-16T08:15:37;7.57;;;2.42;;
48526;SDS011;34317;51.660;5.824;2024-01-16T08:18:04;4.70;;;2.35;;
48526;SDS011;34317;51.660;5.824;2024-01-16T08:20:32;5.00;;;2.20;;
48526;SDS011;34317;51.660;5.824;2024-01-16T08:22:59;6.05;;;2.13;;
48526;SDS011;34317;51.660;5.824;2024-01-16T08:25:26;6.90;;;2.15;;
48526;SDS011;34317;51.660;5.824;2024-01-16T08:27:54;3.75;;;2.05;;
48526;SDS011;34317;51.660;5.824;2024-01-16T08:30:21;7.22;;;2.40;;
48526;SDS011;34317;51.660;5.824;2024-01-16T08:32:50;10.45;;;2.10;;
48526;SDS011;34317;51.660;5.824;2024-01-16T08:35:17;9.35;;;2.42;;
48526;SDS011;34317;51.660;5.824;2024-01-16T08:37:46;4.70;;;1.90;;
48526;SDS011;34317;51.660;5.824;2024-01-16T08:40:14;6.38;;;2.28;;
48526;SDS011;34317;51.660;5.824;2024-01-16T08:42:42;5.80;;;2.28;;
48526;SDS011;34317;51.660;5.824;2024-01-16T08:45:09;6.53;;;2.05;;
48526;SDS011;34317;51.660;5.824;2024-01-16T08:47:38;5.88;;;2.20;;
48526;SDS011;34317;51.660;5.824;2024-01-16T08:50:05;6.55;;;2.20;;
48526;SDS011;34317;51.660;5.824;2024-01-16T08:52:34;3.33;;;1.80;;
48526;SDS011;34317;51.660;5.824;2024-01-16T08:55:02;8.52;;;2.45;;
48526;SDS011;34317;51.660;5.824;2024-01-16T08:57:31;5.30;;;2.65;;
48526;SDS011;34317;51.660;5.824;2024-01-16T08:59:58;7.43;;;2.58;;
48526;SDS011;34317;51.660;5.824;2024-01-16T09:02:27;12.90;;;2.50;;
48526;SDS011;34317;51.660;5.824;2024-01-16T09:04:56;5.65;;;2.50;;
48526;SDS011;34317;51.660;5.824;2024-01-16T09:07:26;8.85;;;2.60;;
48526;SDS011;34317;51.660;5.824;2024-01-16T09:09:54;8.05;;;2.38;;
48526;SDS011;34317;51.660;5.824;2024-01-16T09:12:22;6.53;;;2.63;;
48526;SDS011;34317;51.660;5.824;2024-01-16T09:14:49;9.25;;;3.13;;
48526;SDS011;34317;51.660;5.824;2024-01-16T09:17:16;8.48;;;2.10;;
48526;SDS011;34317;51.660;5.824;2024-01-16T09:19:44;6.45;;;2.30;;
48526;SDS011;34317;51.660;5.824;2024-01-16T09:22:11;6.53;;;2.53;;
48526;SDS011;34317;51.660;5.824;2024-01-16T09:24:38;9.27;;;2.63;;
48526;SDS011;34317;51.660;5.824;2024-01-16T09:27:06;6.47;;;2.25;;
48526;SDS011;34317;51.660;5.824;2024-01-16T09:29:33;10.52;;;2.55;;
48526;SDS011;34317;51.660;5.824;2024-01-16T09:32:01;9.55;;;2.40;;
48526;SDS011;34317;51.660;5.824;2024-01-16T09:34:28;6.40;;;2.28;;
48526;SDS011;34317;51.660;5.824;2024-01-16T09:36:56;5.43;;;2.42;;
48526;SDS011;34317;51.660;5.824;2024-01-16T09:39:26;6.55;;;2.47;;
48526;SDS011;34317;51.660;5.824;2024-01-16T09:41:53;9.55;;;2.80;;
48526;SDS011;34317;51.660;5.824;2024-01-16T09:44:21;10.35;;;2.35;;
48526;SDS011;34317;51.660;5.824;2024-01-16T09:46:49;9.60;;;2.58;;
48526;SDS011;34317;51.660;5.824;2024-01-16T09:49:19;6.60;;;2.38;;
48526;SDS011;34317;51.660;5.824;2024-01-16T09:51:46;4.65;;;2.50;;
48526;SDS011;34317;51.660;5.824;2024-01-16T09:54:14;8.15;;;2.40;;
48526;SDS011;34317;51.660;5.824;2024-01-16T09:56:43;7.00;;;2.53;;
48526;SDS011;34317;51.660;5.824;2024-01-16T09:59:15;5.65;;;2.42;;
48526;SDS011;34317;51.660;5.824;2024-01-16T10:01:45;5.35;;;2.45;;
48526;SDS011;34317;51.660;5.824;2024-01-16T10:04:15;6.68;;;2.67;;
48526;SDS011;34317;51.660;5.824;2024-01-16T10:06:44;7.47;;;2.53;;
48526;SDS011;34317;51.660;5.824;2024-01-16T10:09:14;7.82;;;2.55;;
48526;SDS011;34317;51.660;5.824;2024-01-16T10:11:42;8.48;;;2.80;;
48526;SDS011;34317;51.660;5.824;2024-01-16T10:14:12;7.45;;;2.40;;
48526;SDS011;34317;51.660;5.824;2024-01-16T10:16:58;8.52;;;2.67;;
48526;SDS011;34317;51.660;5.824;2024-01-16T10:19:27;9.25;;;2.70;;
48526;SDS011;34317;51.660;5.824;2024-01-16T10:22:14;7.88;;;2.80;;
48526;SDS011;34317;51.660;5.824;2024-01-16T10:25:05;7.80;;;2.85;;
48526;SDS011;34317;51.660;5.824;2024-01-16T10:27:33;7.90;;;2.40;;
48526;SDS011;34317;51.660;5.824;2024-01-16T10:30:02;6.18;;;2.28;;
48526;SDS011;34317;51.660;5.824;2024-01-16T10:32:33;9.23;;;2.72;;
48526;SDS011;34317;51.660;5.824;2024-01-16T10:35:04;6.97;;;2.65;;
48526;SDS011;34317;51.660;5.824;2024-01-16T10:37:40;8.30;;;2.70;;
48526;SDS011;34317;51.660;5.824;2024-01-16T10:40:10;7.38;;;2.50;;
48526;SDS011;34317;51.660;5.824;2024-01-16T10:42:43;10.43;;;2.88;;
48526;SDS011;34317;51.660;5.824;2024-01-16T10:45:16;6.05;;;2.85;;
48526;SDS011;34317;51.660;5.824;2024-01-16T10:47:49;6.00;;;2.75;;
48526;SDS011;34317;51.660;5.824;2024-01-16T10:50:37;8.50;;;2.70;;
48526;SDS011;34317;51.660;5.824;2024-01-16T10:53:06;7.87;;;2.67;;
48526;SDS011;34317;51.660;5.824;2024-01-16T10:55:53;6.50;;;2.50;;
48526;SDS011;34317;51.660;5.824;2024-01-16T10:58:29;8.35;;;2.70;;
48526;SDS011;34317;51.660;5.824;2024-01-16T11:01:03;5.00;;;2.55;;
48526;SDS011;34317;51.660;5.824;2024-01-16T11:03:38;11.07;;;3.55;;
48526;SDS011;34317;51.660;5.824;2024-01-16T11:06:12;7.97;;;3.10;;
48526;SDS011;34317;51.660;5.824;2024-01-16T11:12:25;10.43;;;2.80;;
48526;SDS011;34317;51.660;5.824;2024-01-16T11:15:39;10.07;;;3.30;;
48526;SDS011;34317;51.660;5.824;2024-01-16T11:18:09;8.95;;;3.13;;
48526;SDS011;34317;51.660;5.824;2024-01-16T11:20:37;8.75;;;3.10;;
48526;SDS011;34317;51.660;5.824;2024-01-16T11:23:29;8.85;;;2.90;;
48526;SDS011;34317;51.660;5.824;2024-01-16T11:25:59;6.38;;;2.80;;
48526;SDS011;34317;51.660;5.824;2024-01-16T11:28:27;7.82;;;3.00;;
48526;SDS011;34317;51.660;5.824;2024-01-16T11:30:58;6.72;;;2.80;;
48526;SDS011;34317;51.660;5.824;2024-01-16T11:33:54;7.90;;;3.10;;
48526;SDS011;34317;51.660;5.824;2024-01-16T11:39:20;11.68;;;2.92;;
48526;SDS011;34317;51.660;5.824;2024-01-16T11:41:55;10.77;;;3.47;;
48526;SDS011;34317;51.660;5.824;2024-01-16T11:47:15;9.98;;;3.20;;
48526;SDS011;34317;51.660;5.824;2024-01-16T11:49:51;10.32;;;3.40;;
48526;SDS011;34317;51.660;5.824;2024-01-16T11:52:42;8.40;;;3.10;;
48526;SDS011;34317;51.660;5.824;2024-01-16T11:55:27;8.48;;;3.10;;
48526;SDS011;34317;51.660;5.824;2024-01-16T12:00:45;9.55;;;3.20;;
48526;SDS011;34317;51.660;5.824;2024-01-16T12:03:14;6.07;;;2.65;;
48526;SDS011;34317;51.660;5.824;2024-01-16T12:06:01;6.20;;;3.13;;
48526;SDS011;34317;51.660;5.824;2024-01-16T12:08:31;8.05;;;2.72;;
48526;SDS011;34317;51.660;5.824;2024-01-16T12:10:58;5.35;;;2.78;;
48526;SDS011;34317;51.660;5.824;2024-01-16T12:13:26;5.72;;;2.95;;
48526;SDS011;34317;51.660;5.824;2024-01-16T12:16:00;8.15;;;3.20;;
48526;SDS011;34317;51.660;5.824;2024-01-16T12:18:35;9.18;;;3.33;;
48526;SDS011;34317;51.660;5.824;2024-01-16T12:21:11;9.90;;;3.10;;
48526;SDS011;34317;51.660;5.824;2024-01-16T12:23:40;9.40;;;3.08;;
48526;SDS011;34317;51.660;5.824;2024-01-16T12:26:19;8.55;;;2.97;;
48526;SDS011;34317;51.660;5.824;2024-01-16T12:28:50;7.63;;;2.97;;
48526;SDS011;34317;51.660;5.824;2024-01-16T12:31:21;5.97;;;2.90;;
48526;SDS011;34317;51.660;5.824;2024-01-16T12:33:51;5.43;;;3.00;;
48526;SDS011;34317;51.660;5.824;2024-01-16T12:36:29;6.53;;;3.00;;
48526;SDS011;34317;51.660;5.824;2024-01-16T12:38:58;9.00;;;2.95;;
48526;SDS011;34317;51.660;5.824;2024-01-16T12:41:26;5.45;;;2.90;;
48526;SDS011;34317;51.660;5.824;2024-01-16T12:44:10;9.23;;;3.10;;
48526;SDS011;34317;51.660;5.824;2024-01-16T12:46:45;6.97;;;3.22;;
48526;SDS011;34317;51.660;5.824;2024-01-16T12:49:22;6.65;;;2.78;;
48526;SDS011;34317;51.660;5.824;2024-01-16T12:51:50;5.90;;;2.65;;
48526;SDS011;34317;51.660;5.824;2024-01-16T12:54:18;8.38;;;2.88;;
48526;SDS011;34317;51.660;5.824;2024-01-16T12:56:57;8.60;;;3.00;;
48526;SDS011;34317;51.660;5.824;2024-01-16T12:59:27;6.57;;;3.13;;
48526;SDS011;34317;51.660;5.824;2024-01-16T13:01:57;6.90;;;2.80;;
48526;SDS011;34317;51.660;5.824;2024-01-16T13:04:25;11.20;;;3.00;;
48526;SDS011;34317;51.660;5.824;2024-01-16T13:07:01;5.70;;;2.67;;
48526;SDS011;34317;51.660;5.824;2024-01-16T13:09:29;8.25;;;2.67;;
48526;SDS011;34317;51.660;5.824;2024-01-16T13:11:57;9.82;;;3.00;;
48526;SDS011;34317;51.660;5.824;2024-01-16T13:14:30;6.00;;;2.55;;
48526;SDS011;34317;51.660;5.824;2024-01-16T13:16:57;5.78;;;2.75;;
48526;SDS011;34317;51.660;5.824;2024-01-16T13:19:26;7.70;;;2.92;;
48526;SDS011;34317;51.660;5.824;2024-01-16T13:21:53;7.35;;;2.90;;
48526;SDS011;34317;51.660;5.824;2024-01-16T13:24:21;9.57;;;3.10;;
48526;SDS011;34317;51.660;5.824;2024-01-16T13:26:51;7.43;;;2.72;;
48526;SDS011;34317;51.660;5.824;2024-01-16T13:29:20;5.32;;;2.80;;
48526;SDS011;34317;51.660;5.824;2024-01-16T13:31:47;6.15;;;2.72;;
48526;SDS011;34317;51.660;5.824;2024-01-16T13:34:15;7.70;;;2.92;;
48526;SDS011;34317;51.660;5.824;2024-01-16T13:36:45;4.47;;;2.42;;
48526;SDS011;34317;51.660;5.824;2024-01-16T13:39:32;5.82;;;2.30;;
48526;SDS011;34317;51.660;5.824;2024-01-16T13:42:05;13.52;;;2.70;;
48526;SDS011;34317;51.660;5.824;2024-01-16T13:44:34;6.60;;;2.70;;
48526;SDS011;34317;51.660;5.824;2024-01-16T13:47:01;5.35;;;2.50;;
48526;SDS011;34317;51.660;5.824;2024-01-16T13:49:37;5.82;;;2.78;;
48526;SDS011;34317;51.660;5.824;2024-01-16T13:52:06;10.90;;;2.78;;
48526;SDS011;34317;51.660;5.824;2024-01-16T13:54:35;6.85;;;2.88;;
48526;SDS011;34317;51.660;5.824;2024-01-16T13:57:03;8.30;;;2.60;;
48526;SDS011;34317;51.660;5.824;2024-01-16T13:59:35;6.88;;;2.72;;
48526;SDS011;34317;51.660;5.824;2024-01-16T14:02:04;8.65;;;2.55;;
48526;SDS011;34317;51.660;5.824;2024-01-16T14:04:35;8.35;;;3.00;;
48526;SDS011;34317;51.660;5.824;2024-01-16T14:07:03;6.40;;;2.38;;
48526;SDS011;34317;51.660;5.824;2024-01-16T14:09:40;5.53;;;2.70;;
48526;SDS011;34317;51.660;5.824;2024-01-16T14:12:10;5.30;;;2.40;;
48526;SDS011;34317;51.660;5.824;2024-01-16T14:14:38;10.15;;;2.38;;
48526;SDS011;34317;51.660;5.824;2024-01-16T14:17:07;3.60;;;2.00;;
48526;SDS011;34317;51.660;5.824;2024-01-16T14:19:34;3.78;;;2.20;;
48526;SDS011;34317;51.660;5.824;2024-01-16T14:22:02;5.35;;;2.50;;
48526;SDS011;34317;51.660;5.824;2024-01-16T14:24:29;3.70;;;2.10;;
48526;SDS011;34317;51.660;5.824;2024-01-16T14:26:57;4.68;;;2.20;;
48526;SDS011;34317;51.660;5.824;2024-01-16T14:29:26;4.95;;;2.55;;
48526;SDS011;34317;51.660;5.824;2024-01-16T14:31:54;6.82;;;2.53;;
48526;SDS011;34317;51.660;5.824;2024-01-16T14:34:23;6.90;;;2.45;;
48526;SDS011;34317;51.660;5.824;2024-01-16T14:36:51;9.38;;;2.90;;
48526;SDS011;34317;51.660;5.824;2024-01-16T14:39:21;5.75;;;2.97;;
48526;SDS011;34317;51.660;5.824;2024-01-16T14:41:53;5.78;;;2.60;;
48526;SDS011;34317;51.660;5.824;2024-01-16T14:44:22;5.28;;;2.92;;
48526;SDS011;34317;51.660;5.824;2024-01-16T14:46:49;6.13;;;2.60;;
48526;SDS011;34317;51.660;5.824;2024-01-16T14:49:19;10.82;;;2.53;;
48526;SDS011;34317;51.660;5.824;2024-01-16T14:51:48;5.28;;;2.55;;
48526;SDS011;34317;51.660;5.824;2024-01-16T14:54:17;5.88;;;2.20;;
48526;SDS011;34317;51.660;5.824;2024-01-16T14:56:45;6.50;;;2.92;;
48526;SDS011;34317;51.660;5.824;2024-01-16T14:59:13;7.03;;;2.60;;
48526;SDS011;34317;51.660;5.824;2024-01-16T15:01:42;7.80;;;3.03;;
48526;SDS011;34317;51.660;5.824;2024-01-16T15:04:11;4.90;;;2.83;;
48526;SDS011;34317;51.660;5.824;2024-01-16T15:06:39;6.30;;;2.85;;
48526;SDS011;34317;51.660;5.824;2024-01-16T15:09:06;10.35;;;3.20;;
48526;SDS011;34317;51.660;5.824;2024-01-16T15:11:37;6.45;;;3.00;;
48526;SDS011;34317;51.660;5.824;2024-01-16T15:14:05;7.03;;;3.00;;
48526;SDS011;34317;51.660;5.824;2024-01-16T15:16:32;8.63;;;3.03;;
48526;SDS011;34317;51.660;5.824;2024-01-16T15:18:59;7.97;;;2.50;;
48526;SDS011;34317;51.660;5.824;2024-01-16T15:21:28;6.50;;;3.13;;